Terminal Aerodrome Forecast
Issued by NWS Medford, OR

Home | Current Version | Previous Version | Text Only | Print | Product List | Glossary On
Versions: 1 2 3 4 5 6 7 8 9 10 11 12 13 14 15 16 17 18 19
000
FTUS46 KMFR 241149
TAFMFR
TAF
KMFR 241149Z 2412/2512 34005KT P6SM -SHRA FEW005 BKN035 BKN070
      TEMPO 2412/2416 BKN005
     FM241600 VRB03KT P6SM SCT010 SCT040
     FM250600 00000KT P6SM OVC250
     FM251100 05001KT P6SM OVC100=

USA.gov is the U.S. government's official web portal to all federal, state and local government web resources and services.